^^
Station Historical Data
Daily Summary for January 12, 2018 Units:  English    Metric   Both
« Previous Day
Next Day »
Daily Weekly Monthly Yearly Custom
  High: Low: Average:
Temperature: TemperatureF °F 18.1 °F 34.8 °F
Dew Point: DewpointF °F 16.5 °F 34.6 °F
Humidity: Humidity % 93 % 99 %
Wind Speed: WindSpeedMPH mph 0.0 mph 0.7 mph
Wind Gust: WindSpeedGustMPH mph - -
Wind:- - SSW
Pressure: PressureIn in 29.50 in -
Precipitation: 0.00 in    
Historical Graphs
 
 
Tabular Data for January 12, 2018
Time Temperature Dew Point Pressure Wind Wind Speed Wind Gust Humidity Rainfall Rate (Hourly) solar Conditions
TemperatureF °F DewpointF °F PressureIn in Calm     Humidity % HourlyPrecipIn in SoftwareType W/m2 Conditions
00:04 36.3 °F 36.3 °F 29.86 in Calm     100 % 0.02 in WeatherDisplay:10.37 W/m2 -RA
00:09 36.4 °F 36.4 °F 29.86 in Calm     100 % 0.02 in WeatherDisplay:10.37 W/m2 -RA
00:14 36.4 °F 36.4 °F 29.85 in Calm     100 % 0.03 in WeatherDisplay:10.37 W/m2 -RA
00:19 36.5 °F 36.5 °F 29.85 in Calm     100 % 0.02 in WeatherDisplay:10.37 W/m2 -RA
00:24 36.6 °F 36.6 °F 29.85 in Calm     100 % 0.02 in WeatherDisplay:10.37 W/m2 -RA
00:29 36.7 °F 36.7 °F 29.85 in Calm   3.0 mph 100 % 0.02 in WeatherDisplay:10.37 W/m2 -RA
00:34 36.7 °F 36.7 °F 29.84 in Calm     100 % 0.02 in WeatherDisplay:10.37 W/m2 -RA
00:39 36.8 °F 36.8 °F 29.83 in Calm   1.0 mph 100 % 0.02 in WeatherDisplay:10.37 W/m2 -RA
00:44 36.9 °F 36.9 °F 29.84 in Calm   2.0 mph 100 % 0.02 in WeatherDisplay:10.37 W/m2 -RA
00:49 36.9 °F 36.9 °F 29.83 in Calm     100 % 0.02 in WeatherDisplay:10.37 W/m2 -RA
00:59 36.9 °F 36.9 °F 29.83 in Calm   1.0 mph 100 % 0.01 in WeatherDisplay:10.37 W/m2 -RA
01:04 37.0 °F 37.0 °F 29.83 in Calm     100 % 0.02 in WeatherDisplay:10.37 W/m2 -RA
01:09 37.0 °F 37.0 °F 29.83 in Calm     100 % 0.01 in WeatherDisplay:10.37 W/m2 -RA
01:14 37.0 °F 37.0 °F 29.82 in Calm     100 % 0.01 in WeatherDisplay:10.37 W/m2 -RA
01:19 37.0 °F 37.0 °F 29.82 in Calm     100 % 0.00 in WeatherDisplay:10.37 W/m2 -RA
01:24 36.9 °F 36.9 °F 29.82 in Calm     100 % 0.01 in WeatherDisplay:10.37 W/m2 -RA
01:34 36.8 °F 36.8 °F 29.81 in Calm     100 % 0.01 in WeatherDisplay:10.37 W/m2 -RA
01:39 36.8 °F 36.8 °F 29.81 in Calm     100 % 0.01 in WeatherDisplay:10.37 W/m2 -RA
01:44 36.7 °F 36.7 °F 29.81 in Calm     100 % 0.02 in WeatherDisplay:10.37 W/m2 -RA
01:49 36.7 °F 36.7 °F 29.81 in Calm     100 % 0.02 in WeatherDisplay:10.37 W/m2 -RA
01:54 36.7 °F 36.7 °F 29.81 in Calm     100 % 0.01 in WeatherDisplay:10.37 W/m2 -RA
01:59 36.7 °F 36.7 °F 29.81 in Calm     100 % 0.01 in WeatherDisplay:10.37 W/m2 -RA
02:04 36.8 °F 36.8 °F 29.80 in Calm     100 % 0.01 in WeatherDisplay:10.37 W/m2 -DZ
02:09 36.8 °F 36.8 °F 29.80 in Calm     100 % 0.02 in WeatherDisplay:10.37 W/m2 -DZ
02:14 36.9 °F 36.9 °F 29.80 in Calm     100 % 0.02 in WeatherDisplay:10.37 W/m2 -RA
02:19 36.9 °F 36.9 °F 29.80 in Calm     100 % 0.01 in WeatherDisplay:10.37 W/m2 -RA
02:24 36.9 °F 36.9 °F 29.80 in Calm     100 % 0.02 in WeatherDisplay:10.37 W/m2 -RA
02:34 37.0 °F 37.0 °F 29.80 in Calm   1.0 mph 100 % 0.01 in WeatherDisplay:10.37 W/m2 -RA
02:39 37.0 °F 37.0 °F 29.80 in Calm     100 % 0.00 in WeatherDisplay:10.37 W/m2 -RA
02:44 37.0 °F 37.0 °F 29.80 in Calm     100 % 0.00 in WeatherDisplay:10.37 W/m2 -RA
02:49 37.0 °F 37.0 °F 29.80 in Calm     100 % 0.00 in WeatherDisplay:10.37 W/m2 -RA
02:54 37.0 °F 37.0 °F 29.79 in Calm     100 % 0.00 in WeatherDisplay:10.37 W/m2 -RA
03:04 36.9 °F 36.9 °F 29.78 in Calm     100 % 0.00 in WeatherDisplay:10.37 W/m2 -RA
03:09 36.8 °F 36.8 °F 29.78 in Calm     100 % 0.00 in WeatherDisplay:10.37 W/m2 -RA
03:19 36.7 °F 36.7 °F 29.77 in Calm     100 % 0.00 in WeatherDisplay:10.37 W/m2 -RA
03:24 36.5 °F 36.5 °F 29.77 in Calm     100 % 0.00 in WeatherDisplay:10.37 W/m2 -RA
03:29 36.4 °F 36.4 °F 29.77 in Calm     100 % 0.00 in WeatherDisplay:10.37 W/m2 -RA
03:34 36.3 °F 36.3 °F 29.77 in Calm     100 % 0.00 in WeatherDisplay:10.37 W/m2 -RA
03:39 36.2 °F 36.2 °F 29.77 in Calm     100 % 0.00 in WeatherDisplay:10.37 W/m2 -RA
03:44 36.1 °F 36.1 °F 29.76 in Calm     100 % 0.00 in WeatherDisplay:10.37 W/m2 -RA
03:49 36.1 °F 36.1 °F 29.76 in Calm     100 % 0.00 in WeatherDisplay:10.37 W/m2 OVC
03:54 36.0 °F 36.0 °F 29.76 in Calm     100 % 0.00 in WeatherDisplay:10.37 W/m2 OVC
03:59 36.0 °F 36.0 °F 29.76 in Calm     100 % 0.00 in WeatherDisplay:10.37 W/m2 OVC
04:04 35.9 °F 35.9 °F 29.76 in Calm     100 % 0.00 in WeatherDisplay:10.37 W/m2 OVC
04:09 35.9 °F 35.9 °F 29.75 in Calm     100 % 0.00 in WeatherDisplay:10.37 W/m2 OVC
04:14 35.9 °F 35.9 °F 29.75 in Calm     100 % 0.00 in WeatherDisplay:10.37 W/m2 OVC
04:19 35.8 °F 35.8 °F 29.75 in Calm     100 % 0.00 in WeatherDisplay:10.37 W/m2
04:24 35.8 °F 35.8 °F 29.75 in Calm     100 % 0.00 in WeatherDisplay:10.37 W/m2
04:29 35.9 °F 35.9 °F 29.74 in NW 1.0 mph 4.0 mph 100 % 0.00 in WeatherDisplay:10.37 W/m2
04:39 35.8 °F 35.8 °F 29.75 in Calm   2.0 mph 100 % 0.00 in WeatherDisplay:10.37 W/m2
04:44 35.9 °F 35.9 °F 29.74 in Calm     100 % 0.00 in WeatherDisplay:10.37 W/m2
04:59 35.9 °F 35.9 °F 29.73 in Calm     100 % 0.00 in WeatherDisplay:10.37 W/m2 RA
05:04 36.0 °F 36.0 °F 29.73 in Calm     100 % 0.01 in WeatherDisplay:10.37 W/m2 RA
05:14 36.0 °F 36.0 °F 29.73 in Calm     100 % 0.01 in WeatherDisplay:10.37 W/m2 RA
05:19 36.1 °F 36.1 °F 29.72 in Calm     100 % 0.01 in WeatherDisplay:10.37 W/m2 -RA
05:24 36.1 °F 36.1 °F 29.72 in Calm     100 % 0.01 in WeatherDisplay:10.37 W/m2 -RA
05:29 36.1 °F 36.1 °F 29.72 in Calm     100 % 0.00 in WeatherDisplay:10.37 W/m2 -RA
05:34 36.1 °F 36.1 °F 29.72 in Calm     100 % 0.01 in WeatherDisplay:10.37 W/m2 -RA
05:39 36.1 °F 36.1 °F 29.72 in Calm     100 % 0.01 in WeatherDisplay:10.37 W/m2 -RA
05:44 36.1 °F 36.1 °F 29.71 in Calm     100 % 0.01 in WeatherDisplay:10.37 W/m2 -RA
05:49 36.0 °F 36.0 °F 29.71 in Calm     100 % 0.00 in WeatherDisplay:10.37 W/m2 -RA
05:54 36.1 °F 36.1 °F 29.72 in Calm     100 % 0.01 in WeatherDisplay:10.37 W/m2 -RA
05:59 36.1 °F 36.1 °F 29.72 in Calm     100 % 0.01 in WeatherDisplay:10.37 W/m2 -RA
06:04 36.2 °F 36.2 °F 29.71 in Calm     100 % 0.01 in WeatherDisplay:10.37 W/m2 -RA
06:09 36.2 °F 36.2 °F 29.71 in Calm     100 % 0.01 in WeatherDisplay:10.37 W/m2 -RA
06:14 36.3 °F 36.3 °F 29.71 in Calm     100 % 0.01 in WeatherDisplay:10.37 W/m2 -RA
06:24 36.5 °F 36.5 °F 29.70 in Calm     100 % 0.02 in WeatherDisplay:10.37 W/m2 -RA
06:29 36.6 °F 36.6 °F 29.71 in Calm   2.0 mph 100 % 0.01 in WeatherDisplay:10.37 W/m2 -RA
06:34 36.6 °F 36.6 °F 29.71 in Calm     100 % 0.02 in WeatherDisplay:10.37 W/m2 -RA
06:39 36.7 °F 36.7 °F 29.70 in Calm     100 % 0.02 in WeatherDisplay:10.37 W/m2 -RA
06:44 36.7 °F 36.7 °F 29.71 in Calm     100 % 0.02 in WeatherDisplay:10.37 W/m2 -RA
06:49 36.7 °F 36.7 °F 29.71 in Calm     100 % 0.02 in WeatherDisplay:10.37 W/m2 -RA
06:54 36.8 °F 36.8 °F 29.70 in Calm     100 % 0.02 in WeatherDisplay:10.37 W/m2 -RA
06:59 36.9 °F 36.9 °F 29.70 in Calm     100 % 0.02 in WeatherDisplay:10.37 W/m2 -RA
07:04 37.0 °F 37.0 °F 29.70 in Calm     100 % 0.01 in WeatherDisplay:10.37 W/m2 -RA
07:14 37.2 °F 37.2 °F 29.70 in Calm     100 % 0.01 in WeatherDisplay:10.37 W/m2 -RA
07:19 37.3 °F 37.3 °F 29.70 in Calm     100 % 0.02 in WeatherDisplay:10.37 W/m2 -RA
07:24 37.4 °F 37.4 °F 29.69 in Calm     100 % 0.02 in WeatherDisplay:10.37 W/m2 -RA
07:29 37.4 °F 37.4 °F 29.69 in Calm     100 % 0.00 in WeatherDisplay:10.37 W/m2 -RA
07:34 37.4 °F 37.4 °F 29.69 in Calm     100 % 0.00 in WeatherDisplay:10.37 W/m2 -RA
07:39 37.5 °F 37.5 °F 29.69 in Calm     100 % 0.00 in WeatherDisplay:10.37 W/m2 -RA
07:44 37.5 °F 37.5 °F 29.68 in Calm     100 % 0.00 in WeatherDisplay:10.37 W/m2 -RA
07:49 37.4 °F 37.4 °F 29.68 in Calm     100 % 0.00 in WeatherDisplay:10.37 W/m2 -RA
07:54 37.4 °F 37.4 °F 29.68 in Calm     100 % 0.00 in WeatherDisplay:10.37 W/m2 -RA
07:59 37.3 °F 37.3 °F 29.68 in Calm     100 % 0.00 in WeatherDisplay:10.37 W/m2 -RA
08:04 37.3 °F 37.3 °F 29.67 in Calm     100 % 0.00 in WeatherDisplay:10.37 W/m2 -RA
08:09 37.2 °F 37.2 °F 29.67 in Calm     100 % 0.00 in WeatherDisplay:10.37 W/m2 -RA
08:14 37.1 °F 37.1 °F 29.67 in Calm     100 % 0.00 in WeatherDisplay:10.37 W/m2 -RA
08:19 37.0 °F 37.0 °F 29.67 in Calm     100 % 0.00 in WeatherDisplay:10.37 W/m2 -RA
08:24 36.9 °F 36.9 °F 29.67 in Calm     100 % 0.01 in WeatherDisplay:10.37 W/m2 -RA
08:29 36.8 °F 36.8 °F 29.67 in Calm     100 % 0.00 in WeatherDisplay:10.37 W/m2 -RA
08:34 36.8 °F 36.8 °F 29.66 in Calm     100 % 0.00 in WeatherDisplay:10.37 W/m2 -RA
08:44 36.9 °F 36.9 °F 29.66 in Calm     100 % 0.00 in WeatherDisplay:10.37 W/m2 -RA
08:49 36.9 °F 36.9 °F 29.65 in Calm     100 % 0.01 in WeatherDisplay:10.37 W/m2 -RA
08:54 36.9 °F 36.9 °F 29.65 in Calm     100 % 0.01 in WeatherDisplay:10.37 W/m2 -RA
08:59 36.9 °F 36.9 °F 29.65 in Calm     100 % 0.01 in WeatherDisplay:10.37 W/m2 -RA
09:09 37.0 °F 37.0 °F 29.65 in Calm     100 % 0.00 in WeatherDisplay:10.37 W/m2 -RA
09:14 37.0 °F 37.0 °F 29.65 in Calm     100 % 0.00 in WeatherDisplay:10.37 W/m2 -RA
09:19 37.0 °F 37.0 °F 29.64 in Calm     100 % 0.00 in WeatherDisplay:10.37 W/m2 -RA
09:24 37.1 °F 37.1 °F 29.65 in Calm     100 % 0.00 in WeatherDisplay:10.37 W/m2 -RA
09:34 37.2 °F 37.2 °F 29.65 in NW 2.0 mph 5.0 mph 100 % 0.00 in WeatherDisplay:10.37 W/m2 -RA
09:39 37.2 °F 37.2 °F 29.65 in Calm   2.0 mph 100 % 0.00 in WeatherDisplay:10.37 W/m2 -RA
09:44 37.3 °F 37.3 °F 29.64 in Calm     100 % 0.01 in WeatherDisplay:10.37 W/m2 -RA
09:49 37.3 °F 37.3 °F 29.64 in Calm     100 % 0.01 in WeatherDisplay:10.37 W/m2 -RA
09:54 37.3 °F 37.3 °F 29.64 in Calm     100 % 0.00 in WeatherDisplay:10.37 W/m2 -RA
09:59 37.4 °F 37.4 °F 29.63 in Calm     100 % 0.00 in WeatherDisplay:10.37 W/m2 -RA
10:04 37.4 °F 37.4 °F 29.63 in Calm     100 % 0.00 in WeatherDisplay:10.37 W/m2 -RA
10:09 37.4 °F 37.4 °F 29.63 in Calm     100 % 0.01 in WeatherDisplay:10.37 W/m2 -RA
10:14 37.5 °F 37.5 °F 29.63 in Calm     100 % 0.00 in WeatherDisplay:10.37 W/m2 -RA
10:29 37.9 °F 37.9 °F 29.62 in Calm     100 % 0.01 in WeatherDisplay:10.37 W/m2 -RA
10:34 37.9 °F 37.9 °F 29.61 in Calm     100 % 0.01 in WeatherDisplay:10.37 W/m2 -RA
10:39 38.0 °F 38.0 °F 29.61 in Calm     100 % 0.01 in WeatherDisplay:10.37 W/m2 -RA
10:44 38.1 °F 38.1 °F 29.60 in Calm     100 % 0.01 in WeatherDisplay:10.37 W/m2 -RA
10:49 38.2 °F 38.2 °F 29.60 in Calm     100 % 0.01 in WeatherDisplay:10.37 W/m2 -RA
10:59 38.3 °F 38.3 °F 29.60 in Calm     100 % 0.01 in WeatherDisplay:10.37 W/m2 -RA
11:04 38.5 °F 38.5 °F 29.59 in Calm   1.0 mph 100 % 0.01 in WeatherDisplay:10.37 W/m2 -RA
11:09 38.6 °F 38.6 °F 29.59 in Calm     100 % 0.01 in WeatherDisplay:10.37 W/m2 -RA
11:14 38.6 °F 38.6 °F 29.58 in Calm     100 % 0.01 in WeatherDisplay:10.37 W/m2 -RA
11:24 38.8 °F 38.8 °F 29.57 in Calm     100 % 0.00 in WeatherDisplay:10.37 W/m2 -RA
11:29 38.9 °F 38.9 °F 29.57 in Calm     100 % 0.00 in WeatherDisplay:10.37 W/m2 -RA
11:34 39.0 °F 39.0 °F 29.56 in Calm     100 % 0.00 in WeatherDisplay:10.37 W/m2 -RA
11:39 39.1 °F 39.1 °F 29.56 in Calm     100 % 0.00 in WeatherDisplay:10.37 W/m2 -RA
11:44 39.2 °F 39.2 °F 29.56 in Calm     100 % 0.00 in WeatherDisplay:10.37 W/m2 -RA
11:49 39.2 °F 39.2 °F 29.56 in Calm     100 % 0.00 in WeatherDisplay:10.37 W/m2 -RA
11:54 39.3 °F 39.3 °F 29.56 in Calm     100 % 0.00 in WeatherDisplay:10.37 W/m2 -RA
11:59 39.3 °F 39.3 °F 29.55 in Calm     100 % 0.00 in WeatherDisplay:10.37 W/m2 -RA
12:04 39.3 °F 39.3 °F 29.55 in Calm     100 % 0.00 in WeatherDisplay:10.37 W/m2 -RA
12:09 39.4 °F 39.4 °F 29.55 in Calm     100 % 0.00 in WeatherDisplay:10.37 W/m2 -RA
12:14 39.5 °F 39.5 °F 29.54 in Calm     100 % 0.00 in WeatherDisplay:10.37 W/m2 -RA
12:29 39.9 °F 39.9 °F 29.54 in Calm     100 % 0.00 in WeatherDisplay:10.37 W/m2 -RA
12:34 40.0 °F 40.0 °F 29.54 in Calm     100 % 0.00 in WeatherDisplay:10.37 W/m2 -RA
12:39 40.0 °F 40.0 °F 29.53 in Calm     100 % 0.01 in WeatherDisplay:10.37 W/m2 -RA
12:44 39.9 °F 39.9 °F 29.53 in Calm     100 % 0.00 in WeatherDisplay:10.37 W/m2 -RA
12:49 39.9 °F 39.9 °F 29.53 in Calm     100 % 0.00 in WeatherDisplay:10.37 W/m2 -RA
12:54 39.9 °F 39.9 °F 29.52 in Calm     100 % 0.00 in WeatherDisplay:10.37 W/m2 -RA
13:04 40.1 °F 40.1 °F 29.52 in Calm     100 % 0.00 in WeatherDisplay:10.37 W/m2 -RA
13:09 40.1 °F 40.1 °F 29.51 in Calm     100 % 0.00 in WeatherDisplay:10.37 W/m2 -RA
13:14 40.2 °F 40.2 °F 29.51 in Calm     100 % 0.00 in WeatherDisplay:10.37 W/m2 -RA
13:29 40.1 °F 40.1 °F 29.51 in Calm   4.0 mph 100 % 0.00 in WeatherDisplay:10.37 W/m2 -RA
13:34 40.1 °F 40.1 °F 29.50 in Calm     100 % 0.00 in WeatherDisplay:10.37 W/m2 -RA
13:39 40.1 °F 40.1 °F 29.50 in NW 2.0 mph 5.0 mph 100 % 0.00 in WeatherDisplay:10.37 W/m2 -RA
13:44 40.2 °F 40.2 °F 29.50 in Calm     100 % 0.01 in WeatherDisplay:10.37 W/m2 -RA
14:19 41.2 °F 41.2 °F 29.50 in Calm     100 % 0.01 in WeatherDisplay:10.37 W/m2 -RA
14:24 41.4 °F 41.4 °F 29.50 in Calm   1.0 mph 100 % 0.01 in WeatherDisplay:10.37 W/m2 -RA
14:29 41.5 °F 41.5 °F 29.51 in Calm   2.0 mph 100 % 0.01 in WeatherDisplay:10.37 W/m2 -RA
14:34 41.6 °F 41.6 °F 29.51 in Calm   2.0 mph 100 % 0.00 in WeatherDisplay:10.37 W/m2 -RA
14:39 41.7 °F 41.7 °F 29.51 in Calm     100 % 0.01 in WeatherDisplay:10.37 W/m2 -RA
14:44 41.7 °F 41.7 °F 29.50 in Calm     100 % 0.00 in WeatherDisplay:10.37 W/m2 -RA
14:49 41.8 °F 41.8 °F 29.50 in Calm     100 % 0.00 in WeatherDisplay:10.37 W/m2 -RA
14:54 41.8 °F 41.8 °F 29.50 in Calm     100 % 0.00 in WeatherDisplay:10.37 W/m2 -RA
14:59 41.8 °F 41.8 °F 29.51 in Calm     100 % 0.00 in WeatherDisplay:10.37 W/m2 -RA
15:04 41.7 °F 41.7 °F 29.51 in Calm     100 % 0.00 in WeatherDisplay:10.37 W/m2 -RA
15:09 41.5 °F 41.5 °F 29.51 in NW 3.0 mph 12.0 mph 100 % 0.00 in WeatherDisplay:10.37 W/m2 -RA
15:14 42.3 °F 42.3 °F 29.51 in NNW 3.0 mph 8.0 mph 100 % 0.00 in WeatherDisplay:10.37 W/m2 -RA
15:19 43.2 °F 43.2 °F 29.52 in NNW 5.0 mph 12.0 mph 100 % 0.00 in WeatherDisplay:10.37 W/m2 -RA
15:24 43.5 °F 43.5 °F 29.53 in North 2.0 mph 12.0 mph 100 % 0.00 in WeatherDisplay:10.37 W/m2 -RA
15:29 43.3 °F 43.3 °F 29.54 in North 2.0 mph 8.0 mph 100 % 0.00 in WeatherDisplay:10.37 W/m2 -RA
15:39 42.3 °F 42.3 °F 29.54 in North 3.0 mph 9.0 mph 100 % 0.00 in WeatherDisplay:10.37 W/m2 -RA
15:49 41.4 °F 41.4 °F 29.54 in North 5.0 mph 12.0 mph 100 % 0.00 in WeatherDisplay:10.37 W/m2 -RA
15:59 40.5 °F 40.5 °F 29.54 in NNE 2.0 mph 16.0 mph 100 % 0.00 in WeatherDisplay:10.37 W/m2 -RA
16:04 40.2 °F 40.2 °F 29.54 in NNE 2.0 mph 10.0 mph 100 % 0.00 in WeatherDisplay:10.37 W/m2 -RA
16:09 39.9 °F 39.9 °F 29.55 in NNW 3.0 mph 13.0 mph 100 % 0.00 in WeatherDisplay:10.37 W/m2 -RA
16:14 39.7 °F 39.7 °F 29.57 in NNW 6.0 mph 12.0 mph 100 % 0.00 in WeatherDisplay:10.37 W/m2 -RA
16:19 39.5 °F 39.5 °F 29.57 in NNW 6.0 mph 12.0 mph 100 % 0.00 in WeatherDisplay:10.37 W/m2 -RA
16:24 39.3 °F 39.3 °F 29.57 in NNW 5.0 mph 16.0 mph 100 % 0.00 in WeatherDisplay:10.37 W/m2 -RA
16:29 39.0 °F 39.0 °F 29.58 in North 6.0 mph 16.0 mph 100 % 0.00 in WeatherDisplay:10.37 W/m2 -RA
16:34 38.7 °F 38.7 °F 29.58 in NNW 5.0 mph 12.0 mph 100 % 0.00 in WeatherDisplay:10.37 W/m2 -RA
16:39 38.5 °F 38.5 °F 29.58 in NNW 2.0 mph 10.0 mph 100 % 0.00 in WeatherDisplay:10.37 W/m2 -RA
16:44 38.3 °F 38.3 °F 29.58 in North 3.0 mph 10.0 mph 100 % 0.00 in WeatherDisplay:10.37 W/m2 -RA
16:49 38.0 °F 38.0 °F 29.58 in North 2.0 mph 8.0 mph 100 % 0.01 in WeatherDisplay:10.37 W/m2 -RA
16:54 37.9 °F 37.9 °F 29.59 in North 6.0 mph 14.0 mph 100 % 0.00 in WeatherDisplay:10.37 W/m2 -RA
16:59 37.7 °F 37.7 °F 29.59 in NNW 3.0 mph 8.0 mph 100 % 0.00 in WeatherDisplay:10.37 W/m2 -RA
17:04 37.5 °F 37.5 °F 29.59 in NNW 3.0 mph 10.0 mph 100 % 0.00 in WeatherDisplay:10.37 W/m2 -RA
17:09 37.3 °F 37.3 °F 29.59 in North 2.0 mph 9.0 mph 100 % 0.00 in WeatherDisplay:10.37 W/m2 -RA
17:14 37.2 °F 37.2 °F 29.60 in NNW 2.0 mph 10.0 mph 100 % 0.00 in WeatherDisplay:10.37 W/m2 -RA
17:19 37.0 °F 37.0 °F 29.60 in NNW 1.0 mph 6.0 mph 100 % 0.00 in WeatherDisplay:10.37 W/m2 -RA
17:29 36.8 °F 36.8 °F 29.61 in NNW 1.0 mph 12.0 mph 100 % 0.00 in WeatherDisplay:10.37 W/m2 -RA
17:39 36.5 °F 36.5 °F 29.62 in NNW 2.0 mph 10.0 mph 100 % 0.00 in WeatherDisplay:10.37 W/m2 -RA
17:44 36.3 °F 36.3 °F 29.63 in North 3.0 mph 10.0 mph 100 % 0.00 in WeatherDisplay:10.37 W/m2 -RA
17:49 36.1 °F 36.1 °F 29.63 in North 1.0 mph 13.0 mph 100 % 0.00 in WeatherDisplay:10.37 W/m2 -RA
17:59 35.9 °F 35.9 °F 29.64 in Calm   6.0 mph 100 % 0.00 in WeatherDisplay:10.37 W/m2 -RA
18:04 35.8 °F 35.8 °F 29.65 in NNW 2.0 mph 6.0 mph 100 % 0.00 in WeatherDisplay:10.37 W/m2 -RA
18:09 35.7 °F 35.7 °F 29.65 in NNW 1.0 mph 6.0 mph 100 % 0.00 in WeatherDisplay:10.37 W/m2 -RA
18:14 35.6 °F 35.6 °F 29.66 in Calm   3.0 mph 100 % 0.00 in WeatherDisplay:10.37 W/m2 -RA
18:19 35.5 °F 35.5 °F 29.66 in NNW 3.0 mph 8.0 mph 100 % 0.00 in WeatherDisplay:10.37 W/m2 -RA
18:24 35.4 °F 35.4 °F 29.67 in Calm   2.0 mph 100 % 0.00 in WeatherDisplay:10.37 W/m2 -RA
18:29 35.3 °F 35.3 °F 29.68 in Calm     100 % 0.00 in WeatherDisplay:10.37 W/m2 -RA
18:44 34.9 °F 34.9 °F 29.70 in NE 1.0 mph 4.0 mph 100 % 0.00 in WeatherDisplay:10.37 W/m2 -RA
18:49 34.5 °F 34.5 °F 29.71 in NNE 3.0 mph 9.0 mph 100 % 0.00 in WeatherDisplay:10.37 W/m2 -RA
18:54 33.9 °F 33.9 °F 29.72 in North 5.0 mph 13.0 mph 100 % 0.00 in WeatherDisplay:10.37 W/m2 -RA
18:59 33.2 °F 32.1 °F 29.74 in NNE 3.0 mph 13.0 mph 96 % 0.00 in WeatherDisplay:10.37 W/m2 -RA
19:09 32.2 °F 31.2 °F 29.74 in NNE 3.0 mph 7.0 mph 96 % 0.00 in WeatherDisplay:10.37 W/m2 -RA
19:14 31.8 °F 31.8 °F 29.75 in North 3.0 mph 10.0 mph 100 % 0.00 in WeatherDisplay:10.37 W/m2 -RA
19:19 31.5 °F 30.5 °F 29.75 in Calm   7.0 mph 96 % 0.00 in WeatherDisplay:10.37 W/m2 -RA
19:24 31.2 °F 31.2 °F 29.75 in North 1.0 mph 5.0 mph 100 % 0.00 in WeatherDisplay:10.37 W/m2 -RA
19:29 30.9 °F 29.9 °F 29.75 in NNW 3.0 mph 7.0 mph 96 % 0.00 in WeatherDisplay:10.37 W/m2 -PL
19:34 30.6 °F 29.6 °F 29.77 in NNW 2.0 mph 7.0 mph 96 % 0.00 in WeatherDisplay:10.37 W/m2 -PL
19:44 30.0 °F 29.0 °F 29.78 in Calm   3.0 mph 96 % 0.00 in WeatherDisplay:10.37 W/m2 -PL
19:54 29.5 °F 28.5 °F 29.79 in Calm   7.0 mph 96 % 0.00 in WeatherDisplay:10.37 W/m2 -PL
20:04 28.9 °F 27.9 °F 29.80 in NE 1.0 mph 4.0 mph 96 % 0.01 in WeatherDisplay:10.37 W/m2 -PL
20:09 28.7 °F 27.7 °F 29.80 in Calm   2.0 mph 96 % 0.00 in WeatherDisplay:10.37 W/m2 -PL
20:14 28.5 °F 27.5 °F 29.81 in NNW 1.0 mph 7.0 mph 96 % 0.00 in WeatherDisplay:10.37 W/m2 OVC
20:19 28.2 °F 27.2 °F 29.82 in NNW 7.0 mph 12.0 mph 96 % 0.01 in WeatherDisplay:10.37 W/m2 RA
20:24 27.7 °F 26.7 °F 29.83 in NNW 1.0 mph 7.0 mph 96 % 0.00 in WeatherDisplay:10.37 W/m2 RA
20:29 27.4 °F 26.4 °F 29.83 in NNW 1.0 mph 3.0 mph 96 % 0.00 in WeatherDisplay:10.37 W/m2 OVC
20:34 27.2 °F 26.2 °F 29.82 in North 2.0 mph 8.0 mph 96 % 0.00 in WeatherDisplay:10.37 W/m2 OVC
20:44 26.5 °F 25.5 °F 29.83 in NNE 1.0 mph 4.0 mph 96 % 0.01 in WeatherDisplay:10.37 W/m2 RA
20:49 26.3 °F 25.3 °F 29.83 in NNE 2.0 mph 7.0 mph 96 % 0.00 in WeatherDisplay:10.37 W/m2 RA
20:54 25.9 °F 24.6 °F 29.84 in NNW 2.0 mph 6.0 mph 95 % 0.00 in WeatherDisplay:10.37 W/m2 OVC
21:09 24.4 °F 23.2 °F 29.83 in NNE 1.0 mph 6.0 mph 95 % 0.01 in WeatherDisplay:10.37 W/m2 -SN
21:14 24.2 °F 22.9 °F 29.82 in Calm   5.0 mph 95 % 0.00 in WeatherDisplay:10.37 W/m2 -SN
21:29 23.3 °F 21.8 °F 29.83 in North 1.0 mph 8.0 mph 94 % 0.00 in WeatherDisplay:10.37 W/m2 -SN
21:34 22.8 °F 21.3 °F 29.84 in North 1.0 mph 9.0 mph 94 % 0.00 in WeatherDisplay:10.37 W/m2 -SN
21:39 22.5 °F 21.0 °F 29.84 in NNE 1.0 mph 5.0 mph 94 % 0.01 in WeatherDisplay:10.37 W/m2 -SN
21:44 22.2 °F 20.8 °F 29.85 in NNE 2.0 mph 6.0 mph 94 % 0.01 in WeatherDisplay:10.37 W/m2 -SN
21:49 22.0 °F 20.5 °F 29.86 in North 1.0 mph 4.0 mph 94 % 0.00 in WeatherDisplay:10.37 W/m2 -SN
21:59 21.6 °F 20.1 °F 29.85 in North 1.0 mph 8.0 mph 94 % 0.00 in WeatherDisplay:10.37 W/m2 -SN
22:04 21.4 °F 19.9 °F 29.87 in Calm   8.0 mph 94 % 0.00 in WeatherDisplay:10.37 W/m2 -SN
22:14 21.2 °F 19.7 °F 29.86 in Calm   5.0 mph 94 % 0.01 in WeatherDisplay:10.37 W/m2 -SN
22:29 20.6 °F 18.9 °F 29.88 in North 1.0 mph 8.0 mph 93 % 0.00 in WeatherDisplay:10.37 W/m2 -SN
22:34 20.4 °F 18.7 °F 29.89 in North 1.0 mph 4.0 mph 93 % 0.00 in WeatherDisplay:10.37 W/m2 -SN
22:39 20.1 °F 18.4 °F 29.89 in North 2.0 mph 7.0 mph 93 % 0.00 in WeatherDisplay:10.37 W/m2 -SN
22:44 19.8 °F 18.1 °F 29.89 in Calm   6.0 mph 93 % 0.01 in WeatherDisplay:10.37 W/m2 -SN
22:49 19.6 °F 17.9 °F 29.89 in North 1.0 mph 7.0 mph 93 % 0.00 in WeatherDisplay:10.37 W/m2 -SN
22:54 19.4 °F 17.7 °F 29.89 in NNE 1.0 mph 9.0 mph 93 % 0.00 in WeatherDisplay:10.37 W/m2 -SN
22:59 19.2 °F 17.5 °F 29.89 in NNE 1.0 mph 5.0 mph 93 % 0.00 in WeatherDisplay:10.37 W/m2 -SN
23:04 19.0 °F 17.3 °F 29.89 in Calm   5.0 mph 93 % 0.00 in WeatherDisplay:10.37 W/m2 -SN
23:09 18.9 °F 17.2 °F 29.88 in Calm   6.0 mph 93 % 0.01 in WeatherDisplay:10.37 W/m2 -SN
23:14 18.8 °F 17.1 °F 29.88 in Calm   3.0 mph 93 % 0.00 in WeatherDisplay:10.37 W/m2 -SN
23:19 18.7 °F 17.0 °F 29.88 in Calm   4.0 mph 93 % 0.00 in WeatherDisplay:10.37 W/m2 -SN
23:29 18.5 °F 16.8 °F 29.87 in NE 1.0 mph 7.0 mph 93 % 0.00 in WeatherDisplay:10.37 W/m2 -SN
23:34 18.4 °F 16.7 °F 29.87 in Calm   2.0 mph 93 % 0.00 in WeatherDisplay:10.37 W/m2 -SN
23:39 18.4 °F 16.7 °F 29.87 in NNE 1.0 mph 4.0 mph 93 % 0.00 in WeatherDisplay:10.37 W/m2 -SN
23:44 18.3 °F 16.6 °F 29.87 in NNE 1.0 mph 3.0 mph 93 % 0.00 in WeatherDisplay:10.37 W/m2 -SN
23:49 18.2 °F 16.5 °F 29.88 in Calm   4.0 mph 93 % 0.00 in WeatherDisplay:10.37 W/m2 -SN
23:54 18.1 °F 16.5 °F 29.87 in Calm   4.0 mph 93 % 0.00 in WeatherDisplay:10.37 W/m2 -SN
23:59 18.2 °F 16.5 °F 29.86 in Calm   1.0 mph 93 % 0.01 in WeatherDisplay:10.37 W/m2 -SN
Juneau County Weather
Compliments of Weather Underground - 2.75 mb